Time,TemperatureF,DewpointF,PressureIn,WindDirection,WindDirectionDegrees,WindSpeedMPH,WindSpeedGustMPH,Humidity,HourlyPrecipIn,Conditions,Clouds,dailyrainin,SoftwareType,DateUTC
2013-07-15 00:01:00,74.3,66.0,30.26,ENE,72,1.0,11.0,76,0.00,,,0.00,weatherlink.com 1.10,2013-07-15 04:01:00,
2013-07-15 00:16:00,74.0,66.0,30.26,East,96,2.0,8.0,76,0.00,,,0.00,weatherlink.com 1.10,2013-07-15 04:16:00,
2013-07-15 00:31:00,73.9,66.0,30.26,East,96,3.0,8.0,76,0.00,,,0.00,weatherlink.com 1.10,2013-07-15 04:31:00,
2013-07-15 00:46:00,73.2,66.0,30.26,ENE,70,6.0,6.0,78,0.00,,,0.00,weatherlink.com 1.10,2013-07-15 04:46:00,
2013-07-15 01:01:00,72.7,66.0,30.27,WNW,300,1.0,3.0,79,0.00,,,0.00,weatherlink.com 1.10,2013-07-15 05:01:00,
2013-07-15 01:16:00,73.7,66.0,30.27,East,93,5.0,7.0,76,0.00,,,0.00,weatherlink.com 1.10,2013-07-15 05:16:00,
2013-07-15 01:31:00,73.7,66.0,30.27,East,94,0.0,7.0,76,0.00,,,0.00,weatherlink.com 1.10,2013-07-15 05:31:00,
2013-07-15 01:46:00,73.8,66.0,30.27,East,93,2.0,3.0,76,0.00,,,0.00,weatherlink.com 1.10,2013-07-15 05:46:00,
2013-07-15 02:01:00,73.8,66.0,30.28,East,91,2.0,4.0,76,0.00,,,0.00,weatherlink.com 1.10,2013-07-15 06:01:00,
2013-07-15 02:16:00,73.6,66.0,30.27,East,96,4.0,4.0,77,0.00,,,0.00,weatherlink.com 1.10,2013-07-15 06:16:00,
2013-07-15 02:31:00,73.5,66.0,30.27,East,79,2.0,6.0,77,0.00,,,0.00,weatherlink.com 1.10,2013-07-15 06:31:00,
2013-07-15 02:46:00,73.3,66.0,30.27,ESE,103,0.0,4.0,78,0.00,,,0.00,weatherlink.com 1.10,2013-07-15 06:46:00,
2013-07-15 03:01:00,72.4,66.0,30.27,North,5,2.0,5.0,80,0.00,,,0.00,weatherlink.com 1.10,2013-07-15 07:01:00,
2013-07-15 03:16:00,72.2,66.0,30.27,NNE,25,1.0,3.0,81,0.00,,,0.00,weatherlink.com 1.10,2013-07-15 07:16:00,
2013-07-15 03:31:00,72.8,66.0,30.27,ENE,59,4.0,6.0,80,0.00,,,0.00,weatherlink.com 1.10,2013-07-15 07:31:00,
2013-07-15 03:46:00,72.7,67.0,30.27,East,94,0.0,4.0,81,0.00,,,0.00,weatherlink.com 1.10,2013-07-15 07:46:00,
2013-07-15 04:01:00,72.4,67.0,30.27,ENE,57,1.0,8.0,82,0.00,,,0.00,weatherlink.com 1.10,2013-07-15 08:01:00,
2013-07-15 04:16:00,72.7,67.0,30.27,ENE,71,1.0,6.0,82,0.00,,,0.00,weatherlink.com 1.10,2013-07-15 08:16:00,
2013-07-15 04:31:00,72.0,66.0,30.28,NNE,13,2.0,4.0,82,0.00,,,0.00,weatherlink.com 1.10,2013-07-15 08:31:00,
2013-07-15 04:46:00,72.6,67.0,30.28,East,96,0.0,4.0,82,0.00,,,0.00,weatherlink.com 1.10,2013-07-15 08:46:00,
2013-07-15 05:01:00,72.6,67.0,30.28,ENE,76,2.0,5.0,82,0.00,,,0.00,weatherlink.com 1.10,2013-07-15 09:01:00,
2013-07-15 05:16:00,72.3,67.0,30.29,ENE,68,1.0,5.0,82,0.00,,,0.00,weatherlink.com 1.10,2013-07-15 09:16:00,
2013-07-15 05:31:00,72.0,66.0,30.28,ENE,67,3.0,5.0,82,0.00,,,0.00,weatherlink.com 1.10,2013-07-15 09:31:00,
2013-07-15 05:46:00,71.5,67.0,30.29,NNE,30,3.0,4.0,84,0.00,,,0.00,weatherlink.com 1.10,2013-07-15 09:46:00,
2013-07-15 06:01:00,70.7,66.0,30.29,NNE,30,1.0,4.0,85,0.00,,,0.00,weatherlink.com 1.10,2013-07-15 10:01:00,
2013-07-15 06:16:00,71.5,66.0,30.29,NE,52,2.0,6.0,83,0.00,,,0.00,weatherlink.com 1.10,2013-07-15 10:16:00,
2013-07-15 06:31:00,71.4,66.0,30.30,ENE,74,0.0,4.0,83,0.00,,,0.00,weatherlink.com 1.10,2013-07-15 10:31:00,
2013-07-15 06:46:00,71.5,66.0,30.30,ENE,62,3.0,5.0,83,0.00,,,0.00,weatherlink.com 1.10,2013-07-15 10:46:00,
2013-07-15 07:01:00,71.8,66.0,30.31,East,90,2.0,4.0,83,0.00,,,0.00,weatherlink.com 1.10,2013-07-15 11:01:00,
2013-07-15 07:16:00,72.4,67.0,30.31,ESE,109,2.0,3.0,82,0.00,,,0.00,weatherlink.com 1.10,2013-07-15 11:16:00,
2013-07-15 07:31:00,73.3,67.0,30.32,East,95,4.0,6.0,80,0.00,,,0.00,weatherlink.com 1.10,2013-07-15 11:31:00,
2013-07-15 07:46:00,73.6,67.0,30.32,East,89,3.0,7.0,80,0.00,,,0.00,weatherlink.com 1.10,2013-07-15 11:46:00,
2013-07-15 08:01:00,74.5,68.0,30.32,ESE,109,3.0,7.0,79,0.00,,,0.00,weatherlink.com 1.10,2013-07-15 12:01:00,
2013-07-15 08:16:00,75.0,68.0,30.33,ESE,115,0.0,5.0,79,0.00,,,0.00,weatherlink.com 1.10,2013-07-15 12:16:00,
2013-07-15 08:31:00,75.5,68.0,30.33,ESE,108,5.0,7.0,78,0.00,,,0.00,weatherlink.com 1.10,2013-07-15 12:31:00,
2013-07-15 08:47:00,75.9,68.0,30.33,East,89,5.0,8.0,77,0.00,,,0.00,weatherlink.com 1.10,2013-07-15 12:47:00,
2013-07-15 09:02:00,77.4,69.0,30.33,ENE,77,3.0,7.0,74,0.00,,,0.00,weatherlink.com 1.10,2013-07-15 13:02:00,
2013-07-15 09:17:00,77.6,69.0,30.34,ESE,108,6.0,8.0,74,0.00,,,0.00,weatherlink.com 1.10,2013-07-15 13:17:00,
2013-07-15 09:32:00,77.3,69.0,30.34,South,172,5.0,11.0,76,0.00,,,0.00,weatherlink.com 1.10,2013-07-15 13:32:00,
2013-07-15 09:47:00,78.3,69.0,30.34,East,80,3.0,8.0,73,0.00,,,0.00,weatherlink.com 1.10,2013-07-15 13:47:00,
2013-07-15 10:02:00,80.3,69.0,30.34,ESE,120,6.0,6.0,69,0.00,,,0.00,weatherlink.com 1.10,2013-07-15 14:02:00,
2013-07-15 10:17:00,82.0,70.0,30.34,East,85,4.0,5.0,66,0.00,,,0.00,weatherlink.com 1.10,2013-07-15 14:17:00,
2013-07-15 10:32:00,84.3,69.0,30.34,ENE,65,2.0,4.0,61,0.00,,,0.00,weatherlink.com 1.10,2013-07-15 14:32:00,
2013-07-15 10:47:00,83.9,68.0,30.34,NE,35,2.0,5.0,59,0.00,,,0.00,weatherlink.com 1.10,2013-07-15 14:47:00,
2013-07-15 11:02:00,84.7,68.0,30.34,NE,48,1.0,4.0,57,0.00,,,0.00,weatherlink.com 1.10,2013-07-15 15:02:00,
2013-07-15 11:47:00,86.3,69.0,30.34,North,359,1.0,6.0,57,0.00,,,0.00,weatherlink.com 1.10,2013-07-15 15:47:00,
2013-07-15 12:32:00,87.8,70.0,30.33,East,98,0.0,8.0,55,0.00,,,0.00,weatherlink.com 1.10,2013-07-15 16:32:00,
2013-07-15 13:02:00,90.5,70.0,30.33,NE,46,2.0,7.0,51,0.00,,,0.00,weatherlink.com 1.10,2013-07-15 17:02:00,
2013-07-15 13:17:00,86.4,67.0,30.33,ESE,120,3.0,7.0,53,0.00,,,0.00,weatherlink.com 1.10,2013-07-15 17:17:00,
2013-07-15 13:32:00,86.0,69.0,30.32,ENE,66,0.0,4.0,58,0.00,,,0.00,weatherlink.com 1.10,2013-07-15 17:32:00,
2013-07-15 13:47:00,86.5,68.0,30.32,WNW,303,0.0,5.0,54,0.00,,,0.00,weatherlink.com 1.10,2013-07-15 17:47:00,
2013-07-15 14:02:00,88.1,67.0,30.32,ENE,77,4.0,7.0,50,0.00,,,0.00,weatherlink.com 1.10,2013-07-15 18:02:00,
2013-07-15 14:17:00,85.6,69.0,30.32,NE,50,1.0,7.0,57,0.00,,,0.00,weatherlink.com 1.10,2013-07-15 18:17:00,
2013-07-15 14:32:00,88.6,69.0,30.31,NNE,32,6.0,7.0,53,0.00,,,0.00,weatherlink.com 1.10,2013-07-15 18:32:00,
2013-07-15 14:47:00,88.4,68.0,30.30,ENE,78,4.0,5.0,51,0.00,,,0.00,weatherlink.com 1.10,2013-07-15 18:47:00,
2013-07-15 15:17:00,88.9,67.0,30.30,East,89,3.0,5.0,49,0.00,,,0.00,weatherlink.com 1.10,2013-07-15 19:17:00,
2013-07-15 15:32:00,86.0,68.0,30.29,NE,49,2.0,7.0,55,0.00,,,0.00,weatherlink.com 1.10,2013-07-15 19:32:00,
2013-07-15 16:17:00,89.7,67.0,30.28,ENE,65,2.0,4.0,48,0.00,,,0.00,weatherlink.com 1.10,2013-07-15 20:17:00,
2013-07-15 16:47:00,87.4,68.0,30.27,NNE,32,4.0,8.0,52,0.00,,,0.00,weatherlink.com 1.10,2013-07-15 20:47:00,
2013-07-15 17:02:00,88.2,68.0,30.27,ENE,59,10.0,10.0,52,0.00,,,0.00,weatherlink.com 1.10,2013-07-15 21:02:00,
2013-07-15 17:17:00,86.3,68.0,30.26,ENE,75,1.0,11.0,54,0.00,,,0.00,weatherlink.com 1.10,2013-07-15 21:17:00,
2013-07-15 17:32:00,88.0,68.0,30.25,ESE,107,6.0,7.0,52,0.00,,,0.00,weatherlink.com 1.10,2013-07-15 21:32:00,
2013-07-15 17:47:00,87.4,68.0,30.26,ENE,72,4.0,8.0,52,0.00,,,0.00,weatherlink.com 1.10,2013-07-15 21:47:00,
2013-07-15 18:02:00,87.7,68.0,30.25,ESE,107,4.0,10.0,53,0.00,,,0.00,weatherlink.com 1.10,2013-07-15 22:02:00,
2013-07-15 18:17:00,87.5,68.0,30.25,NE,56,1.0,10.0,52,0.00,,,0.00,weatherlink.com 1.10,2013-07-15 22:17:00,
2013-07-15 18:32:00,87.8,69.0,30.25,ENE,75,0.0,7.0,53,0.00,,,0.00,weatherlink.com 1.10,2013-07-15 22:32:00,
2013-07-15 18:47:00,86.8,67.0,30.25,East,97,4.0,6.0,52,0.00,,,0.00,weatherlink.com 1.10,2013-07-15 22:47:00,
2013-07-15 19:17:00,86.5,67.0,30.26,East,85,9.0,12.0,52,0.00,,,0.00,weatherlink.com 1.10,2013-07-15 23:17:00,
2013-07-15 19:32:00,86.0,67.0,30.26,East,101,1.0,9.0,53,0.00,,,0.00,weatherlink.com 1.10,2013-07-15 23:32:00,
2013-07-15 19:47:00,86.6,68.0,30.26,ENE,66,3.0,5.0,54,0.00,,,0.00,weatherlink.com 1.10,2013-07-15 23:47:00,
2013-07-15 20:02:00,86.3,69.0,30.26,East,84,2.0,5.0,56,0.00,,,0.00,weatherlink.com 1.10,2013-07-16 00:02:00,
2013-07-15 20:17:00,85.5,69.0,30.26,ENE,63,1.0,5.0,58,0.00,,,0.00,weatherlink.com 1.10,2013-07-16 00:17:00,
2013-07-15 20:32:00,84.7,69.0,30.26,ENE,59,0.0,5.0,59,0.00,,,0.00,weatherlink.com 1.10,2013-07-16 00:32:00,
2013-07-15 20:47:00,83.8,68.0,30.26,ESE,103,1.0,4.0,60,0.00,,,0.00,weatherlink.com 1.10,2013-07-16 00:47:00,
2013-07-15 21:02:00,83.1,69.0,30.26,East,92,1.0,6.0,62,0.00,,,0.00,weatherlink.com 1.10,2013-07-16 01:02:00,
2013-07-15 21:17:00,82.7,69.0,30.26,ENE,78,1.0,7.0,63,0.00,,,0.00,weatherlink.com 1.10,2013-07-16 01:17:00,
2013-07-15 21:32:00,82.3,68.0,30.26,East,80,3.0,6.0,63,0.00,,,0.00,weatherlink.com 1.10,2013-07-16 01:32:00,
2013-07-15 22:18:00,81.5,69.0,30.28,East,80,2.0,5.0,65,0.00,,,0.00,weatherlink.com 1.10,2013-07-16 02:18:00,
2013-07-15 22:49:00,80.2,69.0,30.29,NE,49,0.0,3.0,69,0.00,,,0.00,weatherlink.com 1.10,2013-07-16 02:49:00,
2013-07-15 23:03:00,79.6,69.0,30.29,NE,36,4.0,7.0,69,0.00,,,0.00,weatherlink.com 1.10,2013-07-16 03:03:00,
2013-07-15 23:18:00,80.1,69.0,30.30,ENE,60,3.0,6.0,68,0.00,,,0.00,weatherlink.com 1.10,2013-07-16 03:18:00,